Time;durP1;ratioP1;P1;durP2;ratioP2;P2;SDS_P1;SDS_P2;PMS_P1;PMS_P2;Temp;Humidity;BMP_temperature;BMP_pressure;BME280_temperature;BME280_humidity;BME280_pressure;Samples;Min_cycle;Max_cycle;Signal;HPM_P1;HPM_P2
2022/02/04 00:06:53;;;;;;;;;14.00;11.75;;;;;10.26;69.08;101438.03;5006688;28;45640;-57
2022/02/04 00:20:18;;;;;;;;;16.00;13.75;;;;;10.28;69.25;101435.38;5009178;28;45956;-56
2022/02/04 00:22:58;;;;;;;;;14.00;13.00;;;;;10.24;68.99;101436.41;5010191;28;45555;-59
2022/02/04 00:25:47;;;;;;;;;13.00;12.00;;;;;10.22;68.93;101433.88;5014890;28;45534;-56
2022/02/04 00:28:23;;;;;;;;;15.25;13.50;;;;;10.23;68.93;101430.31;5013895;28;45459;-57
2022/02/04 00:31:02;;;;;;;;;15.50;13.00;;;;;10.20;68.86;101433.06;5011433;28;45677;-57
2022/02/04 00:33:31;;;;;;;;;15.75;13.75;;;;;10.17;69.48;101434.97;5013098;28;45737;-58
2022/02/04 00:36:03;;;;;;;;;15.25;11.50;;;;;10.15;69.17;101427.13;5011790;28;45602;-56
2022/02/04 00:38:33;;;;;;;;;14.25;12.00;;;;;10.16;69.66;101422.72;5011702;28;45479;-56
2022/02/04 00:41:05;;;;;;;;;17.75;14.00;;;;;10.18;69.20;101423.50;5011982;28;45775;-58
2022/02/04 00:43:31;;;;;;;;;15.50;11.50;;;;;10.19;69.38;101420.81;5011923;28;45527;-56
2022/02/04 00:46:07;;;;;;;;;16.00;13.00;;;;;10.20;69.45;101409.34;5011327;28;45578;-58
2022/02/04 00:56:35;;;;;;;;;14.75;13.00;;;;;10.27;69.70;101416.09;5011012;28;45538;-56
2022/02/04 01:26:13;;;;;;;;;15.00;13.75;;;;;10.17;69.83;101413.91;5010850;28;46481;-57
2022/02/04 01:28:43;;;;;;;;;13.75;10.75;;;;;10.16;70.09;101412.19;5008024;28;45492;-55
2022/02/04 01:31:12;;;;;;;;;14.00;10.50;;;;;10.18;69.41;101410.34;5009436;28;45510;-55
2022/02/04 01:33:38;;;;;;;;;18.00;12.00;;;;;10.20;69.51;101413.78;5006566;28;45507;-55
2022/02/04 01:36:03;;;;;;;;;15.00;12.50;;;;;10.20;69.75;101412.00;5009262;28;45472;-53
2022/02/04 01:38:30;;;;;;;;;17.50;14.00;;;;;10.20;69.34;101406.72;5008496;28;45641;-54
2022/02/04 01:40:57;;;;;;;;;17.25;15.00;;;;;10.19;69.55;101415.56;5012295;28;45504;-55
2022/02/04 01:43:23;;;;;;;;;18.00;13.00;;;;;10.18;69.32;101408.56;5008584;28;45400;-56
2022/02/04 01:45:57;;;;;;;;;16.75;13.25;;;;;10.18;69.92;101410.34;5009628;28;45652;-58
2022/02/04 01:48:23;;;;;;;;;13.50;13.25;;;;;10.17;69.86;101404.22;5006693;28;45544;-59
2022/02/04 01:50:51;;;;;;;;;14.50;12.75;;;;;10.17;69.23;101413.91;5009152;28;46244;-58
2022/02/04 01:53:27;;;;;;;;;15.50;13.25;;;;;10.17;69.40;101411.25;5008090;28;45441;-58
2022/02/04 01:55:54;;;;;;;;;18.50;12.50;;;;;10.16;69.35;101409.56;5010769;28;45814;-58
2022/02/04 01:58:20;;;;;;;;;15.50;13.00;;;;;10.18;69.44;101407.69;5009056;28;45785;-58
2022/02/04 02:00:45;;;;;;;;;17.00;13.25;;;;;10.15;69.64;101413.13;5010617;28;45511;-58
2022/02/04 02:03:11;;;;;;;;;14.50;12.75;;;;;10.14;70.13;101414.91;5010052;28;45597;-58
2022/02/04 02:05:36;;;;;;;;;13.50;11.00;;;;;10.16;70.05;101410.41;5005271;28;45464;-59
2022/02/04 02:08:08;;;;;;;;;20.50;18.25;;;;;10.18;69.55;101408.56;5001980;28;45367;-59
2022/02/04 02:10:33;;;;;;;;;15.00;13.00;;;;;10.16;69.52;101412.19;5002233;28;45393;-58
2022/02/04 02:50:57;;;;;;;;;18.25;13.00;;;;;10.05;70.85;101373.22;5009850;28;45274;-58
2022/02/04 02:56:27;;;;;;;;;10.50;8.75;;;;;10.02;70.87;101368.94;5021474;28;45362;-58
2022/02/04 02:59:03;;;;;;;;;12.00;10.00;;;;;10.02;70.47;101370.72;5009281;28;45362;-58
2022/02/04 03:01:29;;;;;;;;;8.50;8.00;;;;;9.98;70.54;101371.78;5020182;28;45316;-58
2022/02/04 03:03:57;;;;;;;;;15.50;10.00;;;;;9.95;70.94;101364.03;5021169;28;45273;-58
2022/02/04 03:06:23;;;;;;;;;11.25;9.50;;;;;9.94;70.83;101372.84;5021063;28;45249;-58
2022/02/04 03:08:49;;;;;;;;;9.75;8.75;;;;;9.92;71.12;101365.03;5021220;28;45479;-58
2022/02/04 03:11:15;;;;;;;;;10.50;9.00;;;;;9.90;70.94;101359.00;5021457;28;45268;-58
2022/02/04 03:13:43;;;;;;;;;15.50;10.25;;;;;9.91;71.06;101354.59;5020901;28;45422;-58
2022/02/04 03:16:13;;;;;;;;;11.75;9.00;;;;;9.90;71.04;101352.88;5020903;28;45388;-58
2022/02/04 03:18:42;;;;;;;;;8.75;8.75;;;;;9.87;71.62;101345.97;5021319;28;45336;-58
2022/02/04 03:21:17;;;;;;;;;13.25;7.00;;;;;9.85;71.22;101349.59;5013735;28;45389;-58
2022/02/04 03:23:48;;;;;;;;;8.25;8.25;;;;;9.83;71.47;101343.56;5000872;28;45441;-58
2022/02/04 03:28:58;;;;;;;;;9.50;7.00;;;;;9.88;72.32;101331.06;5001350;28;45210;-58
2022/02/04 03:31:27;;;;;;;;;8.75;8.00;;;;;9.91;71.79;101330.91;5001138;28;45362;-58
2022/02/04 03:33:53;;;;;;;;;7.25;5.50;;;;;9.94;71.46;101326.31;5000841;28;45320;-58
2022/02/04 03:36:19;;;;;;;;;7.25;7.00;;;;;9.93;71.25;101329.03;5001085;28;45258;-58
2022/02/04 03:38:44;;;;;;;;;9.00;5.25;;;;;9.93;71.55;101336.94;5001501;28;45298;-58
2022/02/04 03:41:11;;;;;;;;;8.50;7.50;;;;;9.91;71.34;101331.75;5009146;28;45618;-57
2022/02/04 03:43:37;;;;;;;;;7.50;7.50;;;;;9.91;71.48;101334.38;5000740;28;45373;-57
2022/02/04 03:46:05;;;;;;;;;7.00;7.00;;;;;9.90;72.08;101323.94;5000931;28;45235;-57
2022/02/04 03:48:31;;;;;;;;;10.00;8.00;;;;;9.93;71.86;101334.31;5000935;28;45598;-58
2022/02/04 03:50:56;;;;;;;;;10.00;8.75;;;;;9.91;71.74;101344.06;5000834;28;45508;-59
2022/02/04 03:53:22;;;;;;;;;7.75;7.75;;;;;9.87;71.50;101334.59;5005061;28;45462;-59
2022/02/04 03:55:47;;;;;;;;;6.75;6.50;;;;;9.87;71.53;101329.31;5007516;28;45232;-59
2022/02/04 03:58:13;;;;;;;;;9.25;9.00;;;;;9.87;71.98;101326.69;5007373;28;45416;-59
2022/02/04 04:00:39;;;;;;;;;7.50;7.50;;;;;9.86;71.85;101330.25;5019397;28;45269;-59
2022/02/04 04:03:05;;;;;;;;;9.75;8.25;;;;;9.84;71.78;101326.84;5026582;28;46125;-58
2022/02/04 04:05:31;;;;;;;;;10.25;8.75;;;;;9.84;72.30;101332.09;5026984;28;45323;-59
2022/02/04 04:07:57;;;;;;;;;20.00;8.25;;;;;9.85;71.77;101331.19;5026945;28;45239;-59
2022/02/04 04:10:27;;;;;;;;;12.75;9.50;;;;;9.84;71.85;101326.84;5025819;28;45503;-59
2022/02/04 04:12:57;;;;;;;;;14.50;9.50;;;;;9.83;72.15;101330.41;5026695;28;46355;-59
2022/02/04 04:15:23;;;;;;;;;8.00;8.00;;;;;9.83;71.94;101328.63;5027187;28;45340;-59
2022/02/04 04:17:49;;;;;;;;;9.00;9.00;;;;;9.86;72.18;101325.00;5026927;28;45478;-59
2022/02/04 04:20:17;;;;;;;;;8.00;8.00;;;;;9.85;71.84;101326.78;5026714;28;45331;-58
2022/02/04 04:22:43;;;;;;;;;13.75;11.75;;;;;9.87;72.02;101330.16;5013359;28;45364;-59
2022/02/04 04:25:10;;;;;;;;;14.00;12.75;;;;;9.89;72.07;101330.13;5026454;28;45302;-58
2022/02/04 04:27:36;;;;;;;;;15.00;12.00;;;;;9.92;72.06;101330.81;5027014;28;45357;-58
2022/02/04 04:30:03;;;;;;;;;11.75;10.25;;;;;9.94;71.53;101331.59;5026904;28;45525;-58
2022/02/04 04:32:29;;;;;;;;;12.75;9.50;;;;;9.94;72.11;101328.09;5026506;28;45379;-58
2022/02/04 04:34:54;;;;;;;;;14.00;11.25;;;;;9.94;71.46;101320.22;5026575;28;45146;-58
2022/02/04 04:37:21;;;;;;;;;12.25;9.75;;;;;9.93;72.13;101319.38;5026828;28;45210;-59
2022/02/04 04:40:27;;;;;;;;;11.75;9.00;;;;;9.92;71.82;101322.06;5026747;28;45398;-59
2022/02/04 04:46:01;;;;;;;;;17.50;12.75;;;;;9.96;72.00;101319.25;5026643;28;45524;-58
2022/02/04 05:29:12;;;;;;;;;19.25;15.00;;;;;9.90;71.67;101297.63;5002718;28;45389;-58
2022/02/04 05:31:38;;;;;;;;;13.00;11.75;;;;;9.90;71.77;101292.34;5002826;28;45298;-58
2022/02/04 05:34:04;;;;;;;;;18.50;14.25;;;;;9.90;72.16;101292.34;5003119;28;45589;-58
2022/02/04 05:36:33;;;;;;;;;15.25;12.50;;;;;9.91;71.67;101278.28;5002149;28;45345;-58
2022/02/04 05:38:59;;;;;;;;;13.75;11.75;;;;;9.90;71.92;101282.69;5005324;28;45374;-58
2022/02/04 05:41:30;;;;;;;;;14.25;13.75;;;;;9.91;72.08;101286.16;5008167;28;45292;-58
2022/02/04 05:43:59;;;;;;;;;24.75;18.75;;;;;9.94;72.10;101286.00;5003001;28;45371;-59
2022/02/04 05:46:31;;;;;;;;;28.75;19.50;;;;;9.97;71.83;101272.72;5014222;28;45558;-59
2022/02/04 05:48:58;;;;;;;;;13.00;12.75;;;;;9.99;72.01;101284.00;5002623;28;45450;-59
2022/02/04 05:57:08;;;;;;;;;18.25;14.00;;;;;9.99;71.61;101278.75;5012348;28;45978;-58
2022/02/04 06:02:30;;;;;;;;;22.50;17.75;;;;;9.95;71.60;101277.19;5021710;28;45524;-58
2022/02/04 06:08:28;;;;;;;;;17.25;15.00;;;;;9.99;71.93;101273.50;5012148;28;45965;-58
2022/02/04 06:13:54;;;;;;;;;21.50;17.75;;;;;10.01;71.88;101275.09;5022147;28;45393;-59
2022/02/04 06:24:31;;;;;;;;;18.75;15.50;;;;;9.94;71.84;101284.22;5010325;28;45396;-59
2022/02/04 06:26:57;;;;;;;;;18.00;17.25;;;;;9.95;72.12;101283.31;5021970;28;45380;-58
2022/02/04 06:29:23;;;;;;;;;19.75;14.75;;;;;9.97;71.54;101273.56;5016883;28;47281;-59
2022/02/04 06:31:49;;;;;;;;;20.75;15.50;;;;;9.97;72.15;101272.72;5015791;28;45663;-59
2022/02/04 06:34:14;;;;;;;;;17.75;14.75;;;;;9.98;72.37;101279.69;5015637;28;45625;-59
2022/02/04 06:36:40;;;;;;;;;20.75;15.25;;;;;10.00;72.42;101281.31;5014941;28;45324;-59
2022/02/04 06:39:05;;;;;;;;;19.25;13.00;;;;;9.99;71.78;101279.59;5009384;28;45455;-58
2022/02/04 06:41:31;;;;;;;;;20.00;15.50;;;;;9.98;72.33;101267.38;5014231;28;45239;-58
2022/02/04 06:43:56;;;;;;;;;19.50;19.00;;;;;10.00;71.81;101270.78;5002003;28;45285;-60
2022/02/04 06:46:21;;;;;;;;;21.50;18.75;;;;;9.99;71.75;101276.13;5008501;28;45170;-59
2022/02/04 06:48:50;;;;;;;;;20.75;15.75;;;;;9.97;71.63;101270.09;5021181;28;45326;-59
2022/02/04 06:51:15;;;;;;;;;21.00;19.75;;;;;9.99;71.73;101262.97;5005182;28;45340;-58
2022/02/04 06:53:41;;;;;;;;;18.75;16.75;;;;;10.02;71.65;101268.06;5008135;28;45426;-59
2022/02/04 06:56:07;;;;;;;;;20.00;15.00;;;;;10.06;72.08;101267.00;5006952;28;45468;-58
2022/02/04 06:58:33;;;;;;;;;24.00;18.25;;;;;10.07;72.04;101268.72;5012565;28;45411;-56
2022/02/04 07:00:58;;;;;;;;;21.25;17.00;;;;;10.06;71.83;101267.00;5003906;28;45373;-57
2022/02/04 07:03:24;;;;;;;;;18.00;16.75;;;;;10.08;71.94;101267.78;5015906;28;45306;-57
2022/02/04 07:05:56;;;;;;;;;18.75;15.00;;;;;10.09;72.00;101277.38;5009848;28;45520;-57
2022/02/04 07:08:29;;;;;;;;;21.00;18.75;;;;;10.05;71.52;101278.47;5013579;28;45987;-58
2022/02/04 07:12:03;;;;;;;;;17.00;14.00;;;;;10.01;72.04;101269.84;5020829;28;45304;-57
2022/02/04 07:21:34;;;;;;;;;19.50;14.50;;;;;10.05;71.24;101271.41;5006455;28;45380;-57
2022/02/04 07:24:00;;;;;;;;;25.25;16.50;;;;;10.04;71.41;101271.50;5001267;28;45371;-58
2022/02/04 07:26:25;;;;;;;;;18.00;14.75;;;;;10.05;71.65;101276.69;5007312;28;45538;-57
2022/02/04 07:28:53;;;;;;;;;23.25;14.25;;;;;10.06;71.51;101273.13;5006181;28;46002;-58
2022/02/04 07:31:19;;;;;;;;;19.00;14.50;;;;;10.08;71.35;101279.16;5003666;28;45388;-57
2022/02/04 07:33:50;;;;;;;;;11.75;7.50;;;;;10.11;71.33;101272.91;5005699;28;45271;-57
2022/02/04 07:41:50;;;;;;;;;26.25;16.25;;;;;10.14;71.46;101264.84;5009304;28;45293;-57
2022/02/04 07:44:17;;;;;;;;;25.50;19.25;;;;;10.15;71.29;101256.03;5000775;28;45484;-57
2022/02/04 07:46:44;;;;;;;;;21.00;15.00;;;;;10.18;71.58;101261.13;5001111;28;45453;-57
2022/02/04 07:49:11;;;;;;;;;18.75;14.00;;;;;10.17;71.04;101254.16;5000555;28;45254;-58
2022/02/04 07:51:39;;;;;;;;;14.75;13.50;;;;;10.18;70.96;101250.59;5000591;28;45347;-57
2022/02/04 07:54:05;;;;;;;;;11.25;11.25;;;;;10.19;70.98;101254.97;5000536;28;45342;-57
2022/02/04 07:56:31;;;;;;;;;21.25;16.25;;;;;10.20;70.71;101245.28;5001024;28;45370;-58
2022/02/04 07:58:59;;;;;;;;;9.75;8.00;;;;;10.21;70.68;101245.19;5000760;28;46333;-59
2022/02/04 08:01:29;;;;;;;;;18.00;14.50;;;;;10.22;70.53;101249.56;5000425;28;45353;-58
2022/02/04 08:04:17;;;;;;;;;19.75;14.00;;;;;10.25;70.57;101245.91;5000689;28;45297;-59
2022/02/04 08:06:50;;;;;;;;;15.00;13.75;;;;;10.25;70.76;101248.53;5000605;28;45458;-59
2022/02/04 08:09:25;;;;;;;;;15.00;13.50;;;;;10.25;70.96;101252.03;5000591;28;45238;-58
2022/02/04 08:14:32;;;;;;;;;13.00;12.75;;;;;10.27;70.19;101250.19;5000675;28;45476;-58
2022/02/04 08:25:35;;;;;;;;;11.25;10.25;;;;;10.31;69.63;101254.38;5020318;28;45399;-57
2022/02/04 08:49:47;;;;;;;;;17.75;13.00;;;;;10.42;69.61;101251.19;5003405;28;45243;-57
2022/02/04 08:54:46;;;;;;;;;14.25;10.75;;;;;10.47;70.06;101253.59;5003457;28;45404;-57
2022/02/04 08:57:25;;;;;;;;;18.50;14.50;;;;;10.51;69.84;101257.78;5003708;28;45416;-57
2022/02/04 09:02:33;;;;;;;;;14.25;10.50;;;;;10.55;69.30;101248.78;5022964;28;45964;-57
2022/02/04 09:05:00;;;;;;;;;16.00;14.25;;;;;10.56;69.52;101247.84;5023147;28;45316;-57
2022/02/04 09:07:31;;;;;;;;;16.00;12.50;;;;;10.60;68.79;101255.53;5022809;28;45569;-57
2022/02/04 09:10:10;;;;;;;;;19.75;12.00;;;;;10.63;69.37;101234.28;5023304;28;45434;-57
2022/02/04 09:20:35;;;;;;;;;14.50;11.50;;;;;10.76;68.60;101226.63;5023147;28;45189;-57
2022/02/04 09:23:01;;;;;;;;;10.00;8.50;;;;;10.77;68.07;101230.94;5022740;28;46392;-57
2022/02/04 09:25:27;;;;;;;;;10.50;8.50;;;;;10.77;67.98;101230.94;5022931;28;45348;-57
2022/02/04 09:27:52;;;;;;;;;9.00;7.00;;;;;10.78;67.96;101239.69;5023114;28;45463;-58
2022/02/04 09:30:19;;;;;;;;;11.50;9.50;;;;;10.81;67.45;101229.84;5018826;28;45287;-58
2022/02/04 09:32:45;;;;;;;;;11.75;8.50;;;;;10.85;67.35;101226.13;5022910;28;45411;-57
2022/02/04 09:35:22;;;;;;;;;9.25;9.25;;;;;10.90;67.70;101229.38;5022768;28;45232;-58
2022/02/04 09:37:48;;;;;;;;;16.50;9.75;;;;;10.97;67.77;101226.41;5022724;28;45320;-57
2022/02/04 09:40:15;;;;;;;;;12.50;7.75;;;;;11.00;67.31;101227.09;5017367;28;45185;-57
2022/02/04 09:42:42;;;;;;;;;9.00;8.50;;;;;10.99;67.36;101235.94;5009596;28;45356;-57
2022/02/04 09:45:11;;;;;;;;;12.50;11.25;;;;;10.98;67.74;101233.38;5003546;28;45321;-57
2022/02/04 09:47:39;;;;;;;;;11.25;10.00;;;;;10.95;68.05;101231.75;5002951;28;45274;-57
2022/02/04 09:50:12;;;;;;;;;10.50;8.25;;;;;10.91;67.96;101230.22;5002006;28;45514;-57
2022/02/04 10:14:23;;;;;;;;;13.00;9.75;;;;;10.63;69.38;101222.91;5021867;28;45955;-59
2022/02/04 10:17:11;;;;;;;;;6.75;6.25;;;;;10.69;69.53;101224.38;5021960;28;45465;-56
2022/02/04 10:22:10;;;;;;;;;9.00;8.00;;;;;10.94;68.97;101194.94;5021965;28;45488;-57
2022/02/04 10:24:35;;;;;;;;;13.00;9.25;;;;;11.09;69.01;101189.69;5021473;28;45471;-59
2022/02/04 10:27:16;;;;;;;;;9.50;9.00;;;;;11.24;68.74;101187.16;5021823;28;45271;-57
2022/02/04 10:29:50;;;;;;;;;11.75;9.00;;;;;11.35;68.12;101190.91;5018835;28;45305;-57
2022/02/04 10:32:15;;;;;;;;;9.00;6.50;;;;;11.46;67.94;101191.19;5002424;28;45303;-57
2022/02/04 10:34:43;;;;;;;;;8.25;7.75;;;;;11.57;66.92;101181.81;5001995;28;45365;-57
2022/02/04 10:37:28;;;;;;;;;5.50;5.00;;;;;11.63;66.86;101187.59;5008580;28;45282;-57
2022/02/04 10:53:38;;;;;;;;;12.25;5.00;;;;;11.88;65.87;101184.44;5001831;28;45254;-57
2022/02/04 10:56:27;;;;;;;;;8.25;7.00;;;;;11.88;65.87;101179.16;5001386;28;45399;-58
2022/02/04 11:03:59;;;;;;;;;9.75;7.50;;;;;11.94;65.74;101181.44;5001213;28;46513;-58
2022/02/04 11:36:10;;;;;;;;;9.00;4.00;;;;;12.10;64.60;101133.03;5020936;28;45209;-58
2022/02/04 11:53:33;;;;;;;;;3.00;3.00;;;;;12.67;62.80;101081.06;4998671;28;45486;-57
2022/02/04 11:56:00;;;;;;;;;4.25;3.50;;;;;12.70;62.86;101082.66;5013043;28;45306;-56
2022/02/04 11:58:26;;;;;;;;;3.25;3.00;;;;;12.74;62.90;101066.53;5008354;28;45447;-58
2022/02/04 12:01:05;;;;;;;;;2.00;2.00;;;;;12.80;62.20;101060.00;5005564;28;45365;-58
2022/02/04 12:03:41;;;;;;;;;3.00;1.50;;;;;12.90;61.73;101073.47;5000683;28;45388;-58
2022/02/04 12:06:06;;;;;;;;;2.00;2.00;;;;;12.92;61.06;101064.50;5000872;28;45427;-58
2022/02/04 12:08:32;;;;;;;;;5.50;2.00;;;;;12.99;61.27;101070.25;5001008;28;45548;-58
2022/02/04 12:11:00;;;;;;;;;3.00;2.75;;;;;13.09;60.93;101063.41;5000636;28;45415;-59
2022/02/04 12:13:26;;;;;;;;;3.00;3.00;;;;;13.18;61.28;101064.59;5000238;28;45406;-58
2022/02/04 12:16:07;;;;;;;;;3.00;2.00;;;;;13.24;60.72;101064.25;5003943;28;45526;-59
2022/02/04 12:18:45;;;;;;;;;2.25;1.00;;;;;13.21;60.15;101057.38;5004156;28;45471;-59
2022/02/04 12:21:20;;;;;;;;;2.00;2.00;;;;;13.20;60.16;101044.25;5003810;28;45416;-58
2022/02/04 12:23:48;;;;;;;;;1.00;1.00;;;;;13.19;59.89;101045.13;4986905;28;45285;-57
2022/02/04 12:26:34;;;;;;;;;3.50;2.75;;;;;13.25;60.36;101031.56;5002909;28;45324;-57
2022/02/04 12:29:06;;;;;;;;;2.00;2.00;;;;;13.30;60.19;101027.66;5011198;28;45376;-57
2022/02/04 12:31:43;;;;;;;;;4.00;3.00;;;;;13.34;59.14;101020.34;5019311;28;45414;-57
2022/02/04 12:34:14;;;;;;;;;3.75;1.50;;;;;13.39;59.40;101019.13;5023541;28;45324;-58
2022/02/04 12:36:49;;;;;;;;;4.50;1.50;;;;;13.38;58.38;101000.69;5023408;28;45454;-56
2022/02/04 12:39:19;;;;;;;;;3.00;2.00;;;;;13.40;58.57;100997.00;5023406;28;45488;-57
2022/02/04 12:42:13;;;;;;;;;1.00;1.00;;;;;13.46;58.58;100994.91;5005290;28;45480;-57
2022/02/04 12:44:41;;;;;;;;;5.75;2.00;;;;;13.49;58.46;100998.16;5002831;28;45514;-58
2022/02/04 12:47:12;;;;;;;;;1.50;1.50;;;;;13.47;58.62;100999.22;5003847;28;45250;-57
2022/02/04 12:49:49;;;;;;;;;1.75;1.00;;;;;13.47;58.14;100986.84;5003555;28;45269;-58
2022/02/04 12:52:43;;;;;;;;;1.00;1.00;;;;;13.47;58.27;100984.19;5003500;28;45541;-58
2022/02/04 12:55:17;;;;;;;;;3.75;2.00;;;;;13.48;58.24;100998.28;5011586;28;45363;-58
2022/02/04 12:57:55;;;;;;;;;4.50;0.75;;;;;13.40;58.10;100991.69;5023561;28;45289;-57
2022/02/04 13:11:09;;;;;;;;;2.00;0.00;;;;;13.47;57.58;100984.19;5023331;28;45332;-58
2022/02/04 13:13:50;;;;;;;;;0.25;0.25;;;;;13.51;57.46;100975.13;5022791;28;45393;-58
2022/02/04 13:16:22;;;;;;;;;0.00;0.00;;;;;13.49;57.38;100965.56;5022965;28;45245;-58
2022/02/04 13:18:48;;;;;;;;;0.50;0.00;;;;;13.45;56.80;100974.69;5023047;28;45342;-58
2022/02/04 13:21:14;;;;;;;;;2.25;0.00;;;;;13.36;56.87;100970.84;5022994;28;45260;-58
2022/02/04 13:23:40;;;;;;;;;1.00;0.00;;;;;13.29;57.07;100973.06;5022744;28;45987;-58
2022/02/04 13:26:06;;;;;;;;;0.50;0.00;;;;;13.25;57.14;100973.34;5021872;28;45238;-58
2022/02/04 13:28:37;;;;;;;;;1.50;1.00;;;;;13.23;57.09;100981.41;5022769;28;45336;-58
2022/02/04 13:31:05;;;;;;;;;1.00;0.00;;;;;13.18;57.29;100974.66;5018811;28;45442;-58
2022/02/04 13:33:38;;;;;;;;;0.00;0.00;;;;;13.09;57.32;100992.84;5021303;28;48188;-58
2022/02/04 13:41:18;;;;;;;;;1.00;1.00;;;;;13.09;57.68;100990.19;5009779;28;45325;-58
2022/02/04 13:44:02;;;;;;;;;0.50;0.50;;;;;13.14;57.80;100984.63;5010981;28;45554;-58
2022/02/04 13:46:39;;;;;;;;;2.00;0.50;;;;;13.14;57.66;100982.81;5002627;28;45246;-58
2022/02/04 13:51:45;;;;;;;;;0.00;0.00;;;;;13.18;57.65;100987.91;5002706;28;45250;-58
2022/02/04 13:54:23;;;;;;;;;3.00;0.00;;;;;13.18;57.70;100991.38;5002343;28;46100;-58
2022/02/04 13:57:07;;;;;;;;;2.00;0.00;;;;;13.17;57.81;100987.06;5002605;28;45325;-58
2022/02/04 13:59:42;;;;;;;;;0.00;0.00;;;;;13.19;57.75;100989.59;5002684;28;45334;-58
2022/02/04 14:02:17;;;;;;;;;0.50;0.00;;;;;13.09;57.76;100995.50;5013216;28;45439;-58
2022/02/04 14:04:59;;;;;;;;;0.50;0.50;;;;;13.09;58.10;100997.28;5002542;28;45321;-58
2022/02/04 14:07:47;;;;;;;;;0.75;0.00;;;;;13.05;58.13;100988.72;5002205;28;45308;-58
2022/02/04 14:10:23;;;;;;;;;0.00;0.00;;;;;13.03;58.38;100998.56;5002745;28;45278;-58
2022/02/04 14:13:08;;;;;;;;;2.00;0.00;;;;;13.04;58.52;101004.69;5001787;28;45245;-58
2022/02/04 14:15:36;;;;;;;;;2.00;1.00;;;;;13.07;58.50;100991.25;5007224;28;45711;-54
2022/02/04 14:18:09;;;;;;;;;2.00;1.00;;;;;13.05;58.63;101004.59;5005994;28;45416;-49
2022/02/04 14:20:40;;;;;;;;;0.75;0.75;;;;;13.04;58.86;101000.25;5012442;28;45408;-49
2022/02/04 14:23:07;;;;;;;;;2.25;0.00;;;;;13.08;58.96;100998.25;5006194;28;45584;-54
2022/02/04 14:25:44;;;;;;;;;1.00;1.00;;;;;13.11;58.92;101012.13;5006154;28;45569;-51
2022/02/04 14:28:13;;;;;;;;;1.75;0.00;;;;;13.12;59.15;101010.34;5010192;28;45433;-58
2022/02/04 14:30:39;;;;;;;;;1.00;1.00;;;;;13.08;59.19;101014.13;5011066;28;45591;-55
2022/02/04 14:34:21;;;;;;;;;0.00;0.00;;;;;13.09;59.32;101026.38;5010408;28;45571;-53
2022/02/04 14:36:04;;;;;;;;;0.00;0.00;;;;;13.02;60.05;101023.28;5010034;28;45807;-56
2022/02/04 14:52:23;;;;;;;;;1.00;1.00;;;;;12.40;63.39;101066.91;5001228;28;45452;-50
2022/02/04 15:05:44;;;;;;;;;0.00;0.00;;;;;11.65;65.38;101148.75;5001596;28;45273;-52
2022/02/04 15:08:13;;;;;;;;;0.00;0.00;;;;;11.50;66.21;101148.78;5003515;28;45590;-57
2022/02/04 15:10:40;;;;;;;;;3.00;2.00;;;;;11.41;66.83;101151.00;5008823;28;45731;-57
2022/02/04 15:13:12;;;;;;;;;0.75;0.75;;;;;11.34;66.71;101160.19;5012346;28;45533;-58
2022/02/04 15:15:38;;;;;;;;;1.00;1.00;;;;;11.28;66.85;101173.72;4998996;28;46273;-58
2022/02/04 15:18:04;;;;;;;;;2.00;0.00;;;;;11.21;66.46;101176.78;4999392;28;45484;-57
2022/02/04 15:20:29;;;;;;;;;2.00;0.00;;;;;11.14;67.14;101182.41;5001367;28;45414;-58
2022/02/04 15:22:55;;;;;;;;;1.00;1.00;;;;;11.06;67.32;101195.16;5009037;28;45336;-57
2022/02/04 15:25:22;;;;;;;;;0.00;0.00;;;;;10.98;66.79;101192.06;5005374;28;45456;-57
2022/02/04 15:30:40;;;;;;;;;2.25;0.75;;;;;10.74;67.11;101231.09;5007227;28;45245;-57
2022/02/04 15:33:06;;;;;;;;;0.00;0.00;;;;;10.64;67.19;101229.88;5021087;28;45264;-56
2022/02/04 15:35:32;;;;;;;;;1.00;0.50;;;;;10.47;66.43;101236.00;5020936;28;45525;-56
2022/02/04 15:37:57;;;;;;;;;0.00;0.00;;;;;10.39;66.42;101242.59;5020582;28;45395;-56
2022/02/04 15:40:23;;;;;;;;;0.00;0.00;;;;;10.37;67.09;101247.94;5014381;28;45238;-56
2022/02/04 15:42:56;;;;;;;;;0.00;0.00;;;;;10.36;66.28;101248.88;5008975;28;45426;-56
2022/02/04 15:51:02;;;;;;;;;0.00;0.00;;;;;10.22;65.67;101256.56;5000908;28;45293;-57
2022/02/04 15:54:20;;;;;;;;;1.00;0.00;;;;;10.19;65.36;101261.97;5008846;28;45291;-55
2022/02/04 15:56:31;;;;;;;;;0.25;0.00;;;;;10.18;65.64;101274.28;5007569;28;45519;-57
2022/02/04 16:06:37;;;;;;;;;2.25;2.25;;;;;9.92;65.34;101304.50;5020624;28;45432;-54
2022/02/04 16:09:03;;;;;;;;;0.75;0.75;;;;;9.89;65.20;101311.72;5020395;28;45925;-55
2022/02/04 16:11:50;;;;;;;;;5.25;1.00;;;;;9.89;65.21;101319.59;5020703;28;45400;-58
2022/02/04 16:14:42;;;;;;;;;1.00;1.00;;;;;9.90;65.09;101313.41;5020510;28;45450;-55
2022/02/04 16:17:18;;;;;;;;;1.00;1.00;;;;;9.88;65.06;101320.53;5020461;28;45276;-57
2022/02/04 16:19:54;;;;;;;;;2.25;0.75;;;;;9.86;64.89;101323.22;5020403;28;45391;-57
2022/02/04 16:22:53;;;;;;;;;2.00;1.50;;;;;9.83;64.52;101333.03;5020147;28;45542;-57
2022/02/04 16:25:32;;;;;;;;;1.00;0.00;;;;;9.76;62.89;101333.31;5019866;28;45356;-54
2022/02/04 16:30:41;;;;;;;;;0.00;0.00;;;;;9.60;62.93;101341.97;5011387;28;45353;-56
2022/02/04 16:33:07;;;;;;;;;0.25;0.25;;;;;9.52;62.44;101329.19;5020341;28;45328;-57
2022/02/04 16:35:32;;;;;;;;;0.00;0.00;;;;;9.45;62.23;101343.53;5020563;28;45480;-55
2022/02/04 16:38:03;;;;;;;;;2.00;1.00;;;;;9.38;62.58;101350.81;5020090;28;45270;-55
2022/02/04 16:40:30;;;;;;;;;2.50;1.00;;;;;9.33;62.02;101362.50;5012347;28;45399;-55
2022/02/04 16:42:56;;;;;;;;;5.00;1.00;;;;;9.32;62.46;101376.53;5007600;28;45207;-55
2022/02/04 16:45:23;;;;;;;;;2.00;0.00;;;;;9.29;62.27;101384.56;5000453;28;45444;-56
2022/02/04 16:47:51;;;;;;;;;2.25;1.00;;;;;9.25;62.33;101381.22;5000345;28;45708;-56
2022/02/04 16:50:21;;;;;;;;;4.25;1.00;;;;;9.23;62.45;101383.03;5003807;28;45431;-55
2022/02/04 16:52:50;;;;;;;;;0.00;0.00;;;;;9.20;62.17;101391.94;5000096;28;45420;-55
2022/02/04 16:55:17;;;;;;;;;1.00;1.00;;;;;9.18;62.71;101399.03;5000228;28;45343;-55
2022/02/04 16:57:43;;;;;;;;;0.00;0.00;;;;;9.17;62.73;101407.00;5000597;28;45223;-57
2022/02/04 17:00:31;;;;;;;;;4.00;1.00;;;;;9.15;63.01;101411.44;5001865;28;45343;-55
2022/02/04 17:02:58;;;;;;;;;2.00;0.00;;;;;9.10;62.40;101419.53;5003433;28;45271;-55
2022/02/04 17:05:34;;;;;;;;;1.00;1.00;;;;;9.04;62.81;101432.94;5003532;28;45388;-56
2022/02/04 17:08:06;;;;;;;;;1.00;0.75;;;;;9.02;62.54;101437.41;5010765;28;45371;-57
2022/02/04 17:10:33;;;;;;;;;2.50;1.00;;;;;9.01;62.46;101446.22;5023028;28;45469;-57
2022/02/04 17:13:02;;;;;;;;;2.25;1.50;;;;;8.99;62.11;101455.91;5023396;28;45316;-56
2022/02/04 17:15:33;;;;;;;;;2.00;1.00;;;;;8.97;62.46;101457.75;5023211;28;45381;-56
2022/02/04 17:18:01;;;;;;;;;4.00;2.25;;;;;8.97;62.28;101473.50;5023368;28;45526;-56
2022/02/04 17:20:28;;;;;;;;;1.00;1.00;;;;;8.92;62.14;101476.31;5023100;28;46385;-56
2022/02/04 17:22:55;;;;;;;;;4.00;1.00;;;;;8.90;61.93;101475.53;5011484;28;45376;-56
2022/02/04 17:25:28;;;;;;;;;1.00;1.00;;;;;8.88;62.03;101480.00;5020139;28;45194;-56
2022/02/04 17:27:55;;;;;;;;;2.00;1.00;;;;;8.86;62.02;101483.63;5015131;28;45787;-53
2022/02/04 17:30:22;;;;;;;;;1.00;1.00;;;;;8.83;61.78;101496.84;5018652;28;45435;-57
2022/02/04 17:32:49;;;;;;;;;3.00;1.50;;;;;8.81;61.58;101504.81;5006127;28;45473;-57
2022/02/04 17:35:17;;;;;;;;;2.00;2.00;;;;;8.78;61.94;101507.56;5013300;28;45544;-59
2022/02/04 17:37:43;;;;;;;;;3.00;1.75;;;;;8.77;61.47;101504.97;5014490;28;45641;-55
2022/02/04 17:40:11;;;;;;;;;3.50;1.75;;;;;8.73;61.34;101504.25;5014352;28;46020;-63
2022/02/04 17:42:39;;;;;;;;;3.50;1.00;;;;;8.72;62.08;101510.44;5015269;28;45361;-58
2022/02/04 17:45:09;;;;;;;;;2.50;2.00;;;;;8.69;61.27;101513.19;5006563;28;45483;-59
2022/02/04 17:47:35;;;;;;;;;2.75;1.00;;;;;8.65;61.66;101528.19;5003516;28;45303;-57